Time;durP1;ratioP1;P1;durP2;ratioP2;P2;SDS_P1;SDS_P2;PMS_P1;PMS_P2;Temp;Humidity;BMP_temperature;BMP_pressure;BME280_temperature;BME280_humidity;BME280_pressure;Samples;Min_cycle;Max_cycle;Signal;HPM_P1;HPM_P2
2021/01/12 05:17:38;;;;;;;11.10;1.10;;;;;;;;;;4208176;27;20752;-69
2021/01/12 05:20:02;;;;;;;10.02;1.45;;;;;;;;;;4193141;27;20084;-65
2021/01/12 05:22:29;;;;;;;12.43;1.55;;;;;;;;;;4192604;28;20087;-66
2021/01/12 05:24:50;;;;;;;10.35;1.30;;;;;;;;;;4191947;27;20132;-69
2021/01/12 05:27:11;;;;;;;;;;;;;;;;;;4194966;28;20055;-72
2021/01/12 05:29:34;;;;;;;12.77;2.47;;;;;;;;;;4186939;28;20024;-72
2021/01/12 05:31:58;;;;;;;4.88;1.25;;;;;;;;;;4194402;28;20094;-72
2021/01/12 05:34:26;;;;;;;6.18;1.25;;;;;;;;;;4203342;28;20066;-72
2021/01/12 05:36:51;;;;;;;3.78;0.88;;;;;;;;;;4207912;28;20059;-62
2021/01/12 05:39:17;;;;;;;3.75;0.80;;;;;;;;;;4205329;28;20459;-71
2021/01/12 05:41:37;;;;;;;4.72;0.90;;;;;;;;;;4192928;27;20099;-72
2021/01/12 05:43:58;;;;;;;9.60;1.42;;;;;;;;;;4193239;27;20192;-72
2021/01/12 05:46:22;;;;;;;4.00;1.00;;;;;;;;;;4208175;28;20081;-72
2021/01/12 05:48:45;;;;;;;3.53;0.90;;;;;;;;;;4207546;28;20063;-71
2021/01/12 05:51:08;;;;;;;4.63;0.90;;;;;;;;;;4191940;27;20056;-72
2021/01/12 05:53:47;;;;;;;14.63;1.52;;;;;;;;;;4189499;28;20188;-72
2021/01/12 05:56:08;;;;;;;6.47;1.70;;;;;;;;;;4175864;28;20056;-72
2021/01/12 05:58:31;;;;;;;6.63;0.98;;;;;;;;;;4183634;28;20097;-72
2021/01/12 06:00:55;;;;;;;5.15;0.77;;;;;;;;;;4190254;28;20584;-72
2021/01/12 06:03:17;;;;;;;3.22;0.88;;;;;;;;;;4191262;28;20105;-72
2021/01/12 06:05:39;;;;;;;11.23;1.10;;;;;;;;;;4191223;28;20073;-78
2021/01/12 06:08:04;;;;;;;15.43;1.33;;;;;;;;;;4191356;28;20067;-77
2021/01/12 06:10:26;;;;;;;9.25;1.00;;;;;;;;;;4189551;28;20097;-68
2021/01/12 06:12:56;;;;;;;4.25;0.40;;;;;;;;;;4190106;28;20550;-70
2021/01/12 06:15:24;;;;;;;3.85;1.27;;;;;;;;;;4190794;28;20063;-70
2021/01/12 06:17:45;;;;;;;9.57;0.55;;;;;;;;;;4203717;28;20086;-70
2021/01/12 06:20:16;;;;;;;3.30;0.50;;;;;;;;;;4190762;28;20068;-70
2021/01/12 06:22:47;;;;;;;6.80;0.70;;;;;;;;;;4192948;28;20060;-70
2021/01/12 06:25:15;;;;;;;4.47;0.50;;;;;;;;;;4190650;28;20060;-70
2021/01/12 06:27:55;;;;;;;2.20;0.30;;;;;;;;;;4187238;28;20091;-70
2021/01/12 06:30:17;;;;;;;;;;;;;;;;;;4180003;28;20066;-70
2021/01/12 06:32:41;;;;;;;2.85;0.30;;;;;;;;;;4179549;28;19931;-70
2021/01/12 06:35:04;;;;;;;3.13;0.50;;;;;;;;;;4178502;28;20064;-70
2021/01/12 06:37:28;;;;;;;2.50;0.50;;;;;;;;;;4179420;28;20101;-70
2021/01/12 06:39:50;;;;;;;1.77;0.35;;;;;;;;;;4178351;28;20059;-70
2021/01/12 06:42:13;;;;;;;2.03;0.32;;;;;;;;;;4178516;28;20584;-70
2021/01/12 06:44:35;;;;;;;2.00;0.40;;;;;;;;;;4179471;28;20518;-70
2021/01/12 06:46:59;;;;;;;2.67;0.30;;;;;;;;;;4179458;28;20072;-71
2021/01/12 06:49:22;;;;;;;1.85;0.30;;;;;;;;;;4179441;28;20063;-70
2021/01/12 06:51:43;;;;;;;0.68;0.20;;;;;;;;;;4179549;28;20563;-71
2021/01/12 06:54:05;;;;;;;0.50;0.30;;;;;;;;;;4178338;28;20128;-71
2021/01/12 06:56:33;;;;;;;1.75;0.50;;;;;;;;;;4177795;28;20052;-70
2021/01/12 06:58:54;;;;;;;1.83;0.30;;;;;;;;;;4178268;28;20064;-71
2021/01/12 07:01:27;;;;;;;1.77;0.30;;;;;;;;;;4179445;28;20064;-70
2021/01/12 07:03:50;;;;;;;1.13;0.33;;;;;;;;;;4179591;28;20052;-71
2021/01/12 07:06:24;;;;;;;1.95;0.30;;;;;;;;;;4178611;28;20055;-71
2021/01/12 07:08:49;;;;;;;;;;;;;;;;;;4179887;28;20088;-70
2021/01/12 07:11:13;;;;;;;1.25;0.40;;;;;;;;;;4179157;28;19973;-70
2021/01/12 07:13:37;;;;;;;1.38;0.20;;;;;;;;;;4179067;28;20057;-70
2021/01/12 07:15:58;;;;;;;0.95;0.30;;;;;;;;;;4178693;28;20072;-71
2021/01/12 07:18:21;;;;;;;;;;;;;;;;;;4177855;28;20074;-71
2021/01/12 07:20:42;;;;;;;2.70;0.30;;;;;;;;;;4178916;28;19969;-67
2021/01/12 07:23:03;;;;;;;;;;;;;;;;;;4178107;28;20059;-67
2021/01/12 07:25:26;;;;;;;1.58;0.60;;;;;;;;;;4177897;28;19936;-67
2021/01/12 07:27:56;;;;;;;2.17;0.70;;;;;;;;;;4177846;28;20056;-67
2021/01/12 07:30:20;;;;;;;3.67;1.10;;;;;;;;;;4178869;28;20067;-67
2021/01/12 07:32:55;;;;;;;2.80;1.15;;;;;;;;;;4187679;28;20055;-68
2021/01/12 07:35:18;;;;;;;3.42;1.00;;;;;;;;;;4195326;28;20059;-67
2021/01/12 07:37:42;;;;;;;5.72;1.15;;;;;;;;;;4195059;28;20129;-68
2021/01/12 07:40:07;;;;;;;6.05;1.30;;;;;;;;;;4193093;28;20108;-67
2021/01/12 07:42:28;;;;;;;2.58;1.00;;;;;;;;;;4195068;28;20063;-67
2021/01/12 07:44:56;;;;;;;5.75;1.10;;;;;;;;;;4194154;28;20540;-67
2021/01/12 07:47:21;;;;;;;6.00;1.50;;;;;;;;;;4194080;28;20059;-67
2021/01/12 07:49:43;;;;;;;3.90;1.10;;;;;;;;;;4193951;28;20583;-67
2021/01/12 07:52:08;;;;;;;5.25;1.60;;;;;;;;;;4194967;28;20686;-67
2021/01/12 07:54:30;;;;;;;4.70;1.58;;;;;;;;;;4195123;28;20063;-67
2021/01/12 07:56:55;;;;;;;5.88;1.63;;;;;;;;;;4194912;28;20105;-67
2021/01/12 07:59:15;;;;;;;6.85;2.15;;;;;;;;;;4194865;28;20093;-67
2021/01/12 08:01:37;;;;;;;8.23;2.88;;;;;;;;;;4193980;28;20059;-67
2021/01/12 08:03:58;;;;;;;6.68;2.20;;;;;;;;;;4194279;28;20411;-67
2021/01/12 08:06:19;;;;;;;7.18;2.35;;;;;;;;;;4193768;28;20136;-67
2021/01/12 08:08:40;;;;;;;9.00;2.17;;;;;;;;;;4194840;28;20124;-67
2021/01/12 08:11:02;;;;;;;5.53;1.00;;;;;;;;;;4193809;28;20060;-64
2021/01/12 08:13:24;;;;;;;6.90;1.50;;;;;;;;;;4192482;28;20104;-67
2021/01/12 08:15:48;;;;;;;3.33;0.70;;;;;;;;;;4194472;28;20132;-67
2021/01/12 08:18:12;;;;;;;1.27;0.50;;;;;;;;;;4192873;28;20059;-66
2021/01/12 08:20:34;;;;;;;1.23;0.40;;;;;;;;;;4193169;28;20438;-67
2021/01/12 08:22:57;;;;;;;16.83;1.20;;;;;;;;;;4191646;28;20120;-65
2021/01/12 08:25:21;;;;;;;4.32;0.65;;;;;;;;;;4177705;28;20639;-66
2021/01/12 08:27:47;;;;;;;4.05;0.90;;;;;;;;;;4181485;28;20514;-66
2021/01/12 08:30:12;;;;;;;5.43;0.85;;;;;;;;;;4194245;28;20662;-66
2021/01/12 08:32:34;;;;;;;5.60;0.95;;;;;;;;;;4194258;28;20062;-66
2021/01/12 08:34:59;;;;;;;11.65;0.80;;;;;;;;;;4194153;28;20059;-66
2021/01/12 08:37:22;;;;;;;7.50;0.82;;;;;;;;;;4192934;28;20071;-66
2021/01/12 08:39:45;;;;;;;4.22;0.93;;;;;;;;;;4176591;28;20128;-66
2021/01/12 08:42:11;;;;;;;10.18;1.33;;;;;;;;;;4177518;28;20078;-66
2021/01/12 08:44:36;;;;;;;4.15;0.98;;;;;;;;;;4177648;28;20109;-66
2021/01/12 08:46:56;;;;;;;4.65;0.70;;;;;;;;;;4176421;28;20106;-66
2021/01/12 08:49:18;;;;;;;2.47;0.68;;;;;;;;;;4176786;28;20063;-66
2021/01/12 08:51:40;;;;;;;3.20;0.70;;;;;;;;;;4176842;28;20514;-67
2021/01/12 08:54:01;;;;;;;4.78;1.13;;;;;;;;;;4177036;28;20066;-66
2021/01/12 08:56:23;;;;;;;4.40;1.10;;;;;;;;;;4177410;28;20563;-66
2021/01/12 08:58:44;;;;;;;5.28;1.65;;;;;;;;;;4177299;28;20102;-66
2021/01/12 09:01:05;;;;;;;3.30;1.45;;;;;;;;;;4176307;28;20117;-66
2021/01/12 09:03:30;;;;;;;3.45;1.20;;;;;;;;;;4176278;28;20125;-66
2021/01/12 09:05:51;;;;;;;7.68;2.20;;;;;;;;;;4177264;28;20099;-71
2021/01/12 09:08:16;;;;;;;7.43;3.15;;;;;;;;;;4176949;28;20063;-70
2021/01/12 09:10:39;;;;;;;4.93;2.22;;;;;;;;;;4175457;28;20078;-70
2021/01/12 09:13:03;;;;;;;6.75;2.20;;;;;;;;;;4175690;28;20101;-70
2021/01/12 09:15:29;;;;;;;4.10;1.73;;;;;;;;;;4176369;28;20060;-70
2021/01/12 09:18:05;;;;;;;9.02;1.88;;;;;;;;;;4176612;28;20052;-70
2021/01/12 09:20:25;;;;;;;6.20;2.20;;;;;;;;;;4175581;28;20055;-70
2021/01/12 09:22:46;;;;;;;3.47;1.50;;;;;;;;;;4175108;28;20060;-70
2021/01/12 09:25:10;;;;;;;5.57;1.75;;;;;;;;;;4176286;28;20365;-70
2021/01/12 09:27:31;;;;;;;3.58;1.52;;;;;;;;;;4176671;28;20060;-70
2021/01/12 09:29:56;;;;;;;5.15;1.77;;;;;;;;;;4189210;28;20125;-70
2021/01/12 09:32:30;;;;;;;5.05;1.38;;;;;;;;;;4193043;28;20059;-70
2021/01/12 09:34:51;;;;;;;3.55;1.20;;;;;;;;;;4191791;28;20084;-70
2021/01/12 09:37:18;;;;;;;5.43;1.60;;;;;;;;;;4192869;28;20140;-70
2021/01/12 09:39:38;;;;;;;4.70;1.50;;;;;;;;;;4192741;28;20104;-70
2021/01/12 09:42:01;;;;;;;3.47;1.40;;;;;;;;;;4192589;28;20170;-70
2021/01/12 09:44:22;;;;;;;4.35;1.20;;;;;;;;;;4193216;28;20056;-70
2021/01/12 09:46:47;;;;;;;3.53;1.60;;;;;;;;;;4193157;28;20422;-70
2021/01/12 09:49:10;;;;;;;2.42;0.93;;;;;;;;;;4192884;28;20140;-70
2021/01/12 09:51:31;;;;;;;3.95;1.42;;;;;;;;;;4192819;28;20131;-69
2021/01/12 09:53:52;;;;;;;4.20;1.75;;;;;;;;;;4192826;28;20387;-70
2021/01/12 09:56:15;;;;;;;3.17;1.70;;;;;;;;;;4191694;28;20064;-70
2021/01/12 09:58:36;;;;;;;3.80;1.17;;;;;;;;;;4192976;28;20410;-70
2021/01/12 10:00:59;;;;;;;2.50;1.15;;;;;;;;;;4192787;28;20060;-69
2021/01/12 10:03:21;;;;;;;3.63;1.35;;;;;;;;;;4192928;28;20064;-70
2021/01/12 10:05:44;;;;;;;4.72;1.48;;;;;;;;;;4196011;28;20067;-70
2021/01/12 10:08:05;;;;;;;3.88;1.08;;;;;;;;;;4195324;28;20054;-70
2021/01/12 10:10:26;;;;;;;3.30;1.15;;;;;;;;;;4195854;28;20144;-70
2021/01/12 10:12:50;;;;;;;3.33;1.00;;;;;;;;;;4194871;28;20136;-70
2021/01/12 10:15:11;;;;;;;4.00;1.65;;;;;;;;;;4195492;28;20062;-70
2021/01/12 10:17:34;;;;;;;4.78;1.52;;;;;;;;;;4189433;27;20060;-70
2021/01/12 10:19:56;;;;;;;3.97;1.10;;;;;;;;;;4194771;28;20058;-70
2021/01/12 10:22:16;;;;;;;5.22;1.20;;;;;;;;;;4195653;28;20415;-73
2021/01/12 10:24:37;;;;;;;2.42;0.90;;;;;;;;;;4196042;28;20063;-69
2021/01/12 10:26:58;;;;;;;5.25;1.30;;;;;;;;;;4195935;28;20458;-68
2021/01/12 10:29:22;;;;;;;5.50;1.20;;;;;;;;;;4194702;28;20523;-69
2021/01/12 10:31:44;;;;;;;4.20;1.40;;;;;;;;;;4194673;28;20067;-67
2021/01/12 10:34:04;;;;;;;4.05;1.00;;;;;;;;;;4195996;28;20104;-67
2021/01/12 10:36:26;;;;;;;2.97;1.10;;;;;;;;;;4195882;28;20108;-68
2021/01/12 10:38:49;;;;;;;5.03;0.90;;;;;;;;;;4196031;28;20059;-68
2021/01/12 10:41:14;;;;;;;3.08;1.08;;;;;;;;;;4194648;28;20758;-69
2021/01/12 10:43:37;;;;;;;2.50;1.30;;;;;;;;;;4195916;28;20087;-68
2021/01/12 10:45:57;;;;;;;5.50;1.42;;;;;;;;;;4194360;28;20052;-69
2021/01/12 10:48:22;;;;;;;3.13;1.10;;;;;;;;;;4195474;28;20054;-69
2021/01/12 10:50:43;;;;;;;2.85;1.20;;;;;;;;;;4195703;28;20505;-69
2021/01/12 10:53:05;;;;;;;3.40;1.15;;;;;;;;;;4195551;28;20098;-69
2021/01/12 10:55:25;;;;;;;3.00;0.80;;;;;;;;;;4194472;28;20064;-69
2021/01/12 10:57:49;;;;;;;4.50;1.60;;;;;;;;;;4194522;28;20130;-69
2021/01/12 11:00:11;;;;;;;4.28;0.95;;;;;;;;;;4195338;28;20060;-69
2021/01/12 11:02:36;;;;;;;2.33;0.70;;;;;;;;;;4194195;28;20090;-69
2021/01/12 11:04:57;;;;;;;4.18;1.20;;;;;;;;;;4192912;28;20141;-69
2021/01/12 11:07:18;;;;;;;3.78;1.05;;;;;;;;;;4195296;28;20054;-69
2021/01/12 11:09:40;;;;;;;3.05;1.02;;;;;;;;;;4195368;28;20059;-69
2021/01/12 11:12:04;;;;;;;1.65;0.80;;;;;;;;;;4194568;28;20141;-69
2021/01/12 11:14:25;;;;;;;2.35;0.70;;;;;;;;;;4194898;28;20056;-69
2021/01/12 11:16:47;;;;;;;4.35;1.13;;;;;;;;;;4193830;28;20063;-69
2021/01/12 11:19:08;;;;;;;3.10;0.82;;;;;;;;;;4194208;28;20055;-67
2021/01/12 11:21:29;;;;;;;2.83;0.68;;;;;;;;;;4193945;28;20518;-67
2021/01/12 11:23:52;;;;;;;4.25;1.10;;;;;;;;;;4194118;28;20059;-66
2021/01/12 11:26:17;;;;;;;5.68;1.27;;;;;;;;;;4194630;28;20418;-66
2021/01/12 11:28:40;;;;;;;2.30;0.88;;;;;;;;;;4195335;28;20081;-66
2021/01/12 11:31:00;;;;;;;2.17;0.80;;;;;;;;;;4194158;28;20136;-67
2021/01/12 11:33:21;;;;;;;2.00;0.75;;;;;;;;;;4195354;28;20124;-66
2021/01/12 11:35:45;;;;;;;6.10;1.00;;;;;;;;;;4194263;28;20087;-67
2021/01/12 11:38:06;;;;;;;3.08;1.05;;;;;;;;;;4194106;28;20225;-67
2021/01/12 11:40:27;;;;;;;2.83;0.70;;;;;;;;;;4195186;28;20104;-67
2021/01/12 11:42:52;;;;;;;2.20;0.70;;;;;;;;;;4195213;28;20155;-67
2021/01/12 11:45:14;;;;;;;2.60;0.80;;;;;;;;;;4195086;28;20055;-67
2021/01/12 11:47:35;;;;;;;3.42;1.02;;;;;;;;;;4194091;28;20121;-66
2021/01/12 11:49:56;;;;;;;3.08;1.00;;;;;;;;;;4193621;28;20070;-67
2021/01/12 11:52:17;;;;;;;2.70;0.82;;;;;;;;;;4195140;28;20109;-67
2021/01/12 11:54:38;;;;;;;1.50;0.82;;;;;;;;;;4195236;28;20067;-67
2021/01/12 11:56:59;;;;;;;2.70;1.00;;;;;;;;;;4194029;28;20055;-68
2021/01/12 11:59:24;;;;;;;2.10;0.68;;;;;;;;;;4194002;28;20913;-68
2021/01/12 12:01:46;;;;;;;2.15;0.75;;;;;;;;;;4195233;28;20056;-67
2021/01/12 12:04:07;;;;;;;2.35;0.85;;;;;;;;;;4194150;28;20142;-68
2021/01/12 12:06:27;;;;;;;1.73;0.50;;;;;;;;;;4194013;28;20473;-67
2021/01/12 12:08:48;;;;;;;1.15;0.50;;;;;;;;;;4194030;28;20058;-68
2021/01/12 12:11:09;;;;;;;1.48;0.52;;;;;;;;;;4193481;28;20062;-68
2021/01/12 12:13:39;;;;;;;1.65;0.70;;;;;;;;;;4193719;28;20633;-67
2021/01/12 12:16:04;;;;;;;2.42;0.85;;;;;;;;;;4194782;28;20055;-68
2021/01/12 12:18:28;;;;;;;1.23;0.50;;;;;;;;;;4189261;28;20060;-67
2021/01/12 12:20:50;;;;;;;1.67;0.45;;;;;;;;;;4177173;28;20091;-68
2021/01/12 12:23:10;;;;;;;2.60;0.73;;;;;;;;;;4186928;28;20514;-67
2021/01/12 12:25:31;;;;;;;2.40;0.50;;;;;;;;;;4193042;28;20074;-67
2021/01/12 12:27:54;;;;;;;3.08;0.40;;;;;;;;;;4193528;28;20098;-67
2021/01/12 12:30:19;;;;;;;1.38;0.70;;;;;;;;;;4194557;28;20075;-66
2021/01/12 12:32:43;;;;;;;1.90;0.60;;;;;;;;;;4186251;28;20059;-66
2021/01/12 12:35:07;;;;;;;2.63;0.47;;;;;;;;;;4177848;28;20056;-69
2021/01/12 12:37:28;;;;;;;1.08;0.40;;;;;;;;;;4176955;28;20103;-66
2021/01/12 12:39:48;;;;;;;2.20;0.40;;;;;;;;;;4177932;28;20548;-66
2021/01/12 12:42:13;;;;;;;1.30;0.40;;;;;;;;;;4177713;28;20109;-66
2021/01/12 12:44:34;;;;;;;2.55;0.60;;;;;;;;;;4177792;28;20056;-66
2021/01/12 12:46:58;;;;;;;2.45;0.60;;;;;;;;;;4177866;28;20533;-66
2021/01/12 12:49:20;;;;;;;1.83;0.50;;;;;;;;;;4176750;28;20091;-67
2021/01/12 12:51:41;;;;;;;3.38;0.70;;;;;;;;;;4177473;28;20129;-66
2021/01/12 12:54:02;;;;;;;2.50;0.55;;;;;;;;;;4176792;28;20052;-66
2021/01/12 12:56:23;;;;;;;0.90;0.47;;;;;;;;;;4177020;28;20507;-67
2021/01/12 12:58:44;;;;;;;1.35;0.60;;;;;;;;;;4177726;28;20564;-66
2021/01/12 13:01:05;;;;;;;1.08;0.40;;;;;;;;;;4176681;28;20536;-66
2021/01/12 13:03:26;;;;;;;;;;;;;;;;;;4177038;28;20064;-66
2021/01/12 13:05:50;;;;;;;1.95;0.60;;;;;;;;;;4180049;28;20456;-66
2021/01/12 13:08:12;;;;;;;1.73;0.50;;;;;;;;;;4183789;28;20052;-66
2021/01/12 13:10:36;;;;;;;1.48;0.50;;;;;;;;;;4184793;28;20079;-66
2021/01/12 13:12:57;;;;;;;1.60;0.45;;;;;;;;;;4184745;28;20087;-72
2021/01/12 13:15:22;;;;;;;3.58;0.60;;;;;;;;;;4175450;28;20064;-66
2021/01/12 13:17:46;;;;;;;1.38;0.60;;;;;;;;;;4184146;28;20097;-65
2021/01/12 13:20:11;;;;;;;3.45;0.45;;;;;;;;;;4183393;28;20059;-66
2021/01/12 13:22:34;;;;;;;3.85;0.50;;;;;;;;;;4184292;28;20059;-65
2021/01/12 13:24:55;;;;;;;2.25;0.60;;;;;;;;;;4192823;28;20059;-66
2021/01/12 13:27:19;;;;;;;1.92;0.55;;;;;;;;;;4192577;28;20055;-66
2021/01/12 13:29:39;;;;;;;4.00;0.60;;;;;;;;;;4192587;28;20153;-66
2021/01/12 13:32:09;;;;;;;2.55;0.93;;;;;;;;;;4187993;28;20106;-63
2021/01/12 13:34:31;;;;;;;2.87;0.50;;;;;;;;;;4175950;28;20137;-64
2021/01/12 13:36:51;;;;;;;2.10;0.57;;;;;;;;;;4182126;28;20098;-64
2021/01/12 13:39:14;;;;;;;1.85;0.50;;;;;;;;;;4185645;28;20471;-66
2021/01/12 13:41:36;;;;;;;2.15;0.50;;;;;;;;;;4184294;28;20803;-64
2021/01/12 13:43:56;;;;;;;2.10;0.60;;;;;;;;;;4183213;28;20079;-66
2021/01/12 13:46:35;;;;;;;;;;;;;;;;;;;;;
2021/01/12 13:48:59;;;;;;;1.20;0.55;;;;;;;;;;4184219;28;20113;-66
2021/01/12 13:51:21;;;;;;;2.38;0.68;;;;;;;;;;4188082;28;20064;-66
2021/01/12 13:53:45;;;;;;;2.22;0.63;;;;;;;;;;4195194;28;20167;-71
2021/01/12 13:59:51;;;;;;;3.30;0.60;;;;;;;;;;4195006;28;20064;-69
2021/01/12 14:02:22;;;;;;;3.53;0.73;;;;;;;;;;4195632;28;20051;-78
2021/01/12 14:04:43;;;;;;;4.23;0.60;;;;;;;;;;4195725;28;20062;-71
2021/01/12 14:07:05;;;;;;;5.28;0.68;;;;;;;;;;4187335;28;20324;-65
2021/01/12 14:09:29;;;;;;;2.67;0.40;;;;;;;;;;4191566;28;20136;-65
2021/01/12 14:11:51;;;;;;;3.15;0.50;;;;;;;;;;4194236;28;20771;-64
2021/01/12 14:14:14;;;;;;;2.05;0.75;;;;;;;;;;4193252;28;20154;-66
2021/01/12 14:16:45;;;;;;;3.67;0.82;;;;;;;;;;4184148;28;20164;-64
2021/01/12 14:19:07;;;;;;;3.38;0.75;;;;;;;;;;4191207;28;20117;-70
2021/01/12 14:21:29;;;;;;;2.58;0.65;;;;;;;;;;4186888;28;20055;-65
2021/01/12 14:23:52;;;;;;;2.65;0.43;;;;;;;;;;4179232;28;20067;-67
2021/01/12 14:26:13;;;;;;;2.67;0.73;;;;;;;;;;4178550;28;20419;-64
2021/01/12 14:28:39;;;;;;;3.05;0.63;;;;;;;;;;4179397;28;20055;-67
2021/01/12 14:31:00;;;;;;;4.57;0.68;;;;;;;;;;4179030;28;20067;-65
2021/01/12 14:33:21;;;;;;;;;;;;;;;;;;4179535;28;20059;-63
2021/01/12 14:35:45;;;;;;;2.95;0.70;;;;;;;;;;4177967;28;19974;-64
2021/01/12 14:38:09;;;;;;;;;;;;;;;;;;4179104;28;20064;-65
2021/01/12 14:40:38;;;;;;;3.05;0.70;;;;;;;;;;4179203;28;20586;-67
2021/01/12 14:43:00;;;;;;;3.38;0.70;;;;;;;;;;4179105;28;20064;-71
2021/01/12 14:45:22;;;;;;;;;;;;;;;;;;4188447;28;20055;-72
2021/01/12 14:47:44;;;;;;;2.80;0.50;;;;;;;;;;4194516;28;19967;-72
2021/01/12 14:50:09;;;;;;;3.55;0.85;;;;;;;;;;4186294;28;20062;-65
2021/01/12 14:52:31;;;;;;;5.38;0.98;;;;;;;;;;4186481;28;20514;-66
2021/01/12 14:54:54;;;;;;;3.95;0.70;;;;;;;;;;4185937;28;20055;-67
2021/01/12 14:57:16;;;;;;;3.30;0.63;;;;;;;;;;4186579;28;20048;-77
2021/01/12 14:59:38;;;;;;;2.78;0.70;;;;;;;;;;4185846;28;20100;-67
2021/01/12 15:02:02;;;;;;;3.72;0.75;;;;;;;;;;4186925;28;20071;-67
2021/01/12 15:04:24;;;;;;;3.55;0.80;;;;;;;;;;4178692;28;20064;-78
2021/01/12 15:06:45;;;;;;;3.05;0.70;;;;;;;;;;4183591;28;20108;-67
2021/01/12 15:09:08;;;;;;;2.47;0.60;;;;;;;;;;4186831;28;20179;-71
2021/01/12 15:11:29;;;;;;;2.70;0.75;;;;;;;;;;4186335;28;20490;-62
2021/01/12 15:13:53;;;;;;;4.82;0.70;;;;;;;;;;4190622;28;20801;-67
2021/01/12 15:16:15;;;;;;;3.03;0.63;;;;;;;;;;4184032;28;20146;-66
2021/01/12 15:18:39;;;;;;;2.70;0.85;;;;;;;;;;4194091;28;20064;-65
2021/01/12 15:21:01;;;;;;;1.98;0.80;;;;;;;;;;4189275;28;20111;-68
2021/01/12 15:23:25;;;;;;;2.90;0.70;;;;;;;;;;4186568;28;20122;-62
2021/01/12 15:25:45;;;;;;;2.70;0.60;;;;;;;;;;4186560;28;20464;-65
2021/01/12 15:28:06;;;;;;;3.35;0.60;;;;;;;;;;4185654;28;20052;-68
2021/01/12 15:30:28;;;;;;;6.10;0.50;;;;;;;;;;4185590;28;20125;-66
2021/01/12 15:32:51;;;;;;;2.25;0.50;;;;;;;;;;4186684;28;20136;-71
2021/01/12 15:35:16;;;;;;;3.78;0.63;;;;;;;;;;4186539;28;20122;-62
2021/01/12 15:37:39;;;;;;;2.95;0.50;;;;;;;;;;4183319;28;20052;-67
2021/01/12 15:40:00;;;;;;;3.22;0.65;;;;;;;;;;4178267;28;20086;-64
2021/01/12 15:42:23;;;;;;;3.92;0.60;;;;;;;;;;4180973;28;20712;-66
2021/01/12 15:44:43;;;;;;;3.35;0.60;;;;;;;;;;4186309;28;20056;-67
2021/01/12 15:47:04;;;;;;;3.92;0.77;;;;;;;;;;4191333;28;20119;-62
2021/01/12 15:49:27;;;;;;;2.97;0.50;;;;;;;;;;4193689;28;20631;-62
2021/01/12 15:51:49;;;;;;;1.65;0.50;;;;;;;;;;4183155;28;20141;-62
2021/01/12 15:54:10;;;;;;;3.72;0.75;;;;;;;;;;4178161;28;20172;-62
2021/01/12 15:56:33;;;;;;;2.97;0.80;;;;;;;;;;4177410;28;20106;-62
2021/01/12 15:58:55;;;;;;;4.80;1.00;;;;;;;;;;4191155;28;20107;-71
2021/01/12 16:01:16;;;;;;;4.07;0.80;;;;;;;;;;4187334;28;20093;-69
2021/01/12 16:03:37;;;;;;;8.50;0.68;;;;;;;;;;4193353;28;20083;-70
2021/01/12 16:05:58;;;;;;;3.58;0.70;;;;;;;;;;4193136;28;20063;-68
2021/01/12 16:08:22;;;;;;;2.28;0.60;;;;;;;;;;4186340;28;20093;-62
2021/01/12 16:10:42;;;;;;;3.65;0.60;;;;;;;;;;4185979;28;20092;-65
2021/01/12 16:13:04;;;;;;;5.95;1.10;;;;;;;;;;4186457;28;20149;-65
2021/01/12 16:15:38;;;;;;;7.97;0.65;;;;;;;;;;4189909;28;20070;-66
2021/01/12 16:18:03;;;;;;;3.05;0.70;;;;;;;;;;4180327;28;20138;-68
2021/01/12 16:20:25;;;;;;;3.10;0.50;;;;;;;;;;4191995;28;20090;-70
2021/01/12 16:22:48;;;;;;;4.28;1.08;;;;;;;;;;4193398;28;20097;-64
2021/01/12 16:25:13;;;;;;;4.28;0.98;;;;;;;;;;4194018;28;20059;-64
2021/01/12 16:27:36;;;;;;;4.03;0.95;;;;;;;;;;4184799;28;20066;-70
2021/01/12 16:29:59;;;;;;;6.05;0.75;;;;;;;;;;4179820;28;20846;-61
2021/01/12 16:32:28;;;;;;;4.30;1.00;;;;;;;;;;4176323;28;20055;-61
2021/01/12 16:34:49;;;;;;;4.10;0.70;;;;;;;;;;4176154;28;20447;-61
2021/01/12 16:37:11;;;;;;;3.28;0.88;;;;;;;;;;4175832;28;20669;-61
2021/01/12 16:39:32;;;;;;;3.63;1.00;;;;;;;;;;4176248;28;20121;-61
2021/01/12 16:41:55;;;;;;;3.88;0.95;;;;;;;;;;4175519;28;20095;-61
2021/01/12 16:44:25;;;;;;;3.35;0.90;;;;;;;;;;4177341;28;20128;-61
2021/01/12 16:47:09;;;;;;;3.42;0.88;;;;;;;;;;4177397;28;20051;-61
2021/01/12 16:49:34;;;;;;;1.70;0.70;;;;;;;;;;4176219;28;20136;-61
2021/01/12 16:52:01;;;;;;;3.88;0.85;;;;;;;;;;4176299;28;20107;-62
2021/01/12 16:54:32;;;;;;;6.97;0.70;;;;;;;;;;4176233;28;20085;-62
2021/01/12 16:57:02;;;;;;;6.10;0.75;;;;;;;;;;4177837;28;20181;-67
2021/01/12 16:59:56;;;;;;;2.17;0.60;;;;;;;;;;4188356;28;20078;-70
2021/01/12 17:02:29;;;;;;;2.33;0.75;;;;;;;;;;4192335;28;20067;-67
2021/01/12 17:04:50;;;;;;;3.95;0.85;;;;;;;;;;4178883;28;20085;-64
2021/01/12 17:07:10;;;;;;;4.68;0.65;;;;;;;;;;4177245;28;20430;-63
2021/01/12 17:09:36;;;;;;;2.72;0.77;;;;;;;;;;4176329;28;20055;-66
2021/01/12 17:12:01;;;;;;;2.55;0.70;;;;;;;;;;4175952;28;20055;-63
2021/01/12 17:14:24;;;;;;;3.38;0.95;;;;;;;;;;4190066;28;20064;-65
2021/01/12 17:17:04;;;;;;;5.13;0.80;;;;;;;;;;4192236;28;20059;-62
2021/01/12 17:19:27;;;;;;;2.60;0.70;;;;;;;;;;4175228;28;20068;-65
2021/01/12 17:21:51;;;;;;;6.03;0.90;;;;;;;;;;4186920;28;20101;-66
2021/01/12 17:24:36;;;;;;;3.22;0.95;;;;;;;;;;4184736;28;20051;-68
2021/01/12 17:27:04;;;;;;;2.10;0.70;;;;;;;;;;4183422;28;20179;-65
2021/01/12 17:29:36;;;;;;;3.00;0.70;;;;;;;;;;4184106;28;20055;-66
2021/01/12 17:32:04;;;;;;;3.15;0.65;;;;;;;;;;4184331;28;20052;-62
2021/01/12 17:34:27;;;;;;;3.22;0.60;;;;;;;;;;4185348;28;20128;-61
2021/01/12 17:36:56;;;;;;;1.60;0.40;;;;;;;;;;4183832;28;20103;-63
2021/01/12 17:39:40;;;;;;;2.80;0.70;;;;;;;;;;4184944;28;20064;-65
2021/01/12 17:42:12;;;;;;;6.55;0.65;;;;;;;;;;4183901;28;20067;-64
2021/01/12 17:44:36;;;;;;;2.33;0.47;;;;;;;;;;4185035;28;20137;-65
2021/01/12 17:46:57;;;;;;;4.65;0.90;;;;;;;;;;4183903;28;20063;-62
2021/01/12 17:49:25;;;;;;;3.00;0.60;;;;;;;;;;4184112;28;20117;-72
2021/01/12 17:51:52;;;;;;;2.85;0.57;;;;;;;;;;4189298;28;20079;-63
2021/01/12 17:54:15;;;;;;;2.33;0.73;;;;;;;;;;4175627;28;20056;-61
2021/01/12 17:56:49;;;;;;;2.30;0.60;;;;;;;;;;4175844;28;20174;-64
2021/01/12 17:59:16;;;;;;;3.25;0.80;;;;;;;;;;4174646;28;20147;-71
2021/01/12 18:01:55;;;;;;;7.18;0.70;;;;;;;;;;4178712;28;20111;-69
2021/01/12 18:04:15;;;;;;;;;;;;;;;;;;4185151;28;20159;-68
2021/01/12 18:06:40;;;;;;;16.95;1.52;;;;;;;;;;4175188;28;19931;-67
2021/01/12 18:09:02;;;;;;;13.85;1.27;;;;;;;;;;4181300;28;20147;-70
2021/01/12 18:11:31;;;;;;;16.33;1.92;;;;;;;;;;4178626;28;20523;-67
2021/01/12 18:13:57;;;;;;;14.95;1.60;;;;;;;;;;4181699;28;20099;-67
2021/01/12 18:16:25;;;;;;;13.57;1.83;;;;;;;;;;4181020;27;20120;-67
2021/01/12 18:18:46;;;;;;;10.73;1.33;;;;;;;;;;4182002;28;20051;-67
2021/01/12 18:21:08;;;;;;;5.72;1.13;;;;;;;;;;4190433;28;20139;-67
2021/01/12 18:23:32;;;;;;;9.25;1.30;;;;;;;;;;4190549;28;20524;-67
2021/01/12 18:25:58;;;;;;;6.00;1.35;;;;;;;;;;4178192;28;20067;-67
2021/01/12 18:28:24;;;;;;;7.25;0.82;;;;;;;;;;4177220;28;20179;-67
2021/01/12 18:30:45;;;;;;;5.00;0.80;;;;;;;;;;4176793;28;20125;-67
2021/01/12 18:33:12;;;;;;;9.05;1.00;;;;;;;;;;4177362;28;20110;-67
2021/01/12 18:35:37;;;;;;;7.25;1.08;;;;;;;;;;4177425;28;20122;-66
2021/01/12 18:38:05;;;;;;;8.43;1.30;;;;;;;;;;4183028;28;20120;-64
2021/01/12 18:40:33;;;;;;;4.53;1.15;;;;;;;;;;4186625;28;20051;-65
2021/01/12 18:43:01;;;;;;;7.85;1.48;;;;;;;;;;4184784;28;20083;-66
2021/01/12 18:45:24;;;;;;;3.97;0.95;;;;;;;;;;4184624;28;20418;-67
2021/01/12 18:48:09;;;;;;;5.72;1.23;;;;;;;;;;4184080;28;20060;-65
2021/01/12 18:50:52;;;;;;;7.00;1.30;;;;;;;;;;4184479;28;20063;-66
2021/01/12 18:53:16;;;;;;;5.53;1.10;;;;;;;;;;4185818;28;20096;-76
2021/01/12 18:55:54;;;;;;;4.22;1.33;;;;;;;;;;4186356;28;20063;-76
2021/01/12 18:58:35;;;;;;;4.13;1.27;;;;;;;;;;4188103;28;20088;-75
2021/01/12 19:01:14;;;;;;;3.13;1.25;;;;;;;;;;4194088;28;20090;-75
2021/01/12 19:03:36;;;;;;;5.13;1.40;;;;;;;;;;4195507;28;20120;-75
2021/01/12 19:06:01;;;;;;;6.53;1.85;;;;;;;;;;4194422;28;20100;-75
2021/01/12 19:08:26;;;;;;;3.58;1.30;;;;;;;;;;4195008;28;20093;-75
2021/01/12 19:10:47;;;;;;;3.08;1.02;;;;;;;;;;4194540;28;20052;-74
